sensor_id;sensor_type;location;lat;lon;timestamp;temperature;humidity
10722;DHT22;5412;59.450;18.124;2023-05-15T00:00:07;14.30;93.90
10722;DHT22;5412;59.450;18.124;2023-05-15T00:02:35;14.20;95.20
10722;DHT22;5412;59.450;18.124;2023-05-15T00:05:02;14.20;96.20
10722;DHT22;5412;59.450;18.124;2023-05-15T00:07:29;14.10;96.60
10722;DHT22;5412;59.450;18.124;2023-05-15T00:09:54;14.20;96.80
10722;DHT22;5412;59.450;18.124;2023-05-15T00:12:20;14.20;96.70
10722;DHT22;5412;59.450;18.124;2023-05-15T00:14:46;14.20;96.40
10722;DHT22;5412;59.450;18.124;2023-05-15T00:17:11;14.20;96.40
10722;DHT22;5412;59.450;18.124;2023-05-15T00:19:37;14.30;96.50
10722;DHT22;5412;59.450;18.124;2023-05-15T00:22:03;14.20;96.20
10722;DHT22;5412;59.450;18.124;2023-05-15T00:24:29;14.20;96.50
10722;DHT22;5412;59.450;18.124;2023-05-15T00:26:55;14.20;96.60
10722;DHT22;5412;59.450;18.124;2023-05-15T00:29:20;14.30;96.20
10722;DHT22;5412;59.450;18.124;2023-05-15T00:31:46;14.30;96.00
10722;DHT22;5412;59.450;18.124;2023-05-15T00:34:12;14.30;96.30
10722;DHT22;5412;59.450;18.124;2023-05-15T00:36:38;14.30;96.30
10722;DHT22;5412;59.450;18.124;2023-05-15T00:39:03;14.30;95.90
10722;DHT22;5412;59.450;18.124;2023-05-15T00:41:29;14.30;95.80
10722;DHT22;5412;59.450;18.124;2023-05-15T00:43:57;14.30;95.70
10722;DHT22;5412;59.450;18.124;2023-05-15T00:46:26;14.30;95.70
10722;DHT22;5412;59.450;18.124;2023-05-15T00:48:52;14.30;95.90
10722;DHT22;5412;59.450;18.124;2023-05-15T00:51:18;14.30;95.90
10722;DHT22;5412;59.450;18.124;2023-05-15T00:53:44;14.20;95.70
10722;DHT22;5412;59.450;18.124;2023-05-15T00:56:10;14.20;95.80
10722;DHT22;5412;59.450;18.124;2023-05-15T00:58:37;14.10;96.10
10722;DHT22;5412;59.450;18.124;2023-05-15T01:01:03;14.10;96.10
10722;DHT22;5412;59.450;18.124;2023-05-15T01:03:29;14.10;96.10
10722;DHT22;5412;59.450;18.124;2023-05-15T01:05:55;14.00;95.90
10722;DHT22;5412;59.450;18.124;2023-05-15T01:08:46;14.00;96.10
10722;DHT22;5412;59.450;18.124;2023-05-15T01:11:14;14.00;96.20
10722;DHT22;5412;59.450;18.124;2023-05-15T01:13:40;14.00;96.30
10722;DHT22;5412;59.450;18.124;2023-05-15T01:16:07;14.00;96.30
10722;DHT22;5412;59.450;18.124;2023-05-15T01:18:33;14.00;96.30
10722;DHT22;5412;59.450;18.124;2023-05-15T01:24:03;13.90;96.70
10722;DHT22;5412;59.450;18.124;2023-05-15T01:29:05;13.90;97.70
10722;DHT22;5412;59.450;18.124;2023-05-15T01:31:34;13.80;98.30
10722;DHT22;5412;59.450;18.124;2023-05-15T01:34:02;13.80;98.80
10722;DHT22;5412;59.450;18.124;2023-05-15T01:37:01;13.50;99.10
10722;DHT22;5412;59.450;18.124;2023-05-15T01:39:28;13.60;99.50
10722;DHT22;5412;59.450;18.124;2023-05-15T01:44:33;13.60;99.90
10722;DHT22;5412;59.450;18.124;2023-05-15T01:47:03;13.50;99.90
10722;DHT22;5412;59.450;18.124;2023-05-15T01:49:31;13.50;99.90
10722;DHT22;5412;59.450;18.124;2023-05-15T01:54:35;13.50;99.90
10722;DHT22;5412;59.450;18.124;2023-05-15T01:57:02;13.40;99.90
10722;DHT22;5412;59.450;18.124;2023-05-15T01:59:28;13.40;99.90
10722;DHT22;5412;59.450;18.124;2023-05-15T02:01:56;13.30;99.90
10722;DHT22;5412;59.450;18.124;2023-05-15T02:04:23;13.30;99.90
10722;DHT22;5412;59.450;18.124;2023-05-15T02:06:50;13.20;99.90
10722;DHT22;5412;59.450;18.124;2023-05-15T02:09:19;13.10;99.90
10722;DHT22;5412;59.450;18.124;2023-05-15T02:11:46;12.90;99.90
10722;DHT22;5412;59.450;18.124;2023-05-15T02:14:14;12.90;99.90
10722;DHT22;5412;59.450;18.124;2023-05-15T02:16:40;13.00;99.90
10722;DHT22;5412;59.450;18.124;2023-05-15T02:19:06;12.60;99.90
10722;DHT22;5412;59.450;18.124;2023-05-15T02:21:33;13.10;99.90
10722;DHT22;5412;59.450;18.124;2023-05-15T02:23:59;13.10;99.90
10722;DHT22;5412;59.450;18.124;2023-05-15T02:26:45;13.10;99.90
10722;DHT22;5412;59.450;18.124;2023-05-15T02:37:12;13.20;99.90
10722;DHT22;5412;59.450;18.124;2023-05-15T02:39:40;13.10;99.90
10722;DHT22;5412;59.450;18.124;2023-05-15T02:42:07;13.10;99.90
10722;DHT22;5412;59.450;18.124;2023-05-15T02:44:35;13.10;99.90
10722;DHT22;5412;59.450;18.124;2023-05-15T02:47:03;13.10;99.90
10722;DHT22;5412;59.450;18.124;2023-05-15T02:49:29;13.10;99.90
10722;DHT22;5412;59.450;18.124;2023-05-15T02:51:54;13.10;99.90
10722;DHT22;5412;59.450;18.124;2023-05-15T02:54:20;13.10;99.90
10722;DHT22;5412;59.450;18.124;2023-05-15T02:56:46;13.10;99.90
10722;DHT22;5412;59.450;18.124;2023-05-15T02:59:12;13.10;99.90
10722;DHT22;5412;59.450;18.124;2023-05-15T03:01:46;13.10;99.90
10722;DHT22;5412;59.450;18.124;2023-05-15T03:04:15;13.10;99.90
10722;DHT22;5412;59.450;18.124;2023-05-15T03:06:41;13.00;99.90
10722;DHT22;5412;59.450;18.124;2023-05-15T03:09:07;13.10;99.90
10722;DHT22;5412;59.450;18.124;2023-05-15T03:11:33;13.10;99.90
10722;DHT22;5412;59.450;18.124;2023-05-15T03:13:58;13.00;99.90
10722;DHT22;5412;59.450;18.124;2023-05-15T03:16:25;13.00;99.90
10722;DHT22;5412;59.450;18.124;2023-05-15T03:18:51;13.00;99.90
10722;DHT22;5412;59.450;18.124;2023-05-15T03:21:18;12.80;99.90
10722;DHT22;5412;59.450;18.124;2023-05-15T03:23:43;12.80;99.90
10722;DHT22;5412;59.450;18.124;2023-05-15T03:26:09;12.80;99.90
10722;DHT22;5412;59.450;18.124;2023-05-15T03:28:36;12.90;99.90
10722;DHT22;5412;59.450;18.124;2023-05-15T03:31:02;12.90;99.90
10722;DHT22;5412;59.450;18.124;2023-05-15T03:33:29;13.10;99.90
10722;DHT22;5412;59.450;18.124;2023-05-15T03:35:56;13.00;99.90
10722;DHT22;5412;59.450;18.124;2023-05-15T03:38:21;13.00;99.90
10722;DHT22;5412;59.450;18.124;2023-05-15T03:40:47;13.00;99.90
10722;DHT22;5412;59.450;18.124;2023-05-15T03:43:13;13.10;99.90
10722;DHT22;5412;59.450;18.124;2023-05-15T03:45:38;13.30;99.90
10722;DHT22;5412;59.450;18.124;2023-05-15T03:48:04;13.30;99.90
10722;DHT22;5412;59.450;18.124;2023-05-15T03:50:30;13.40;99.90
10722;DHT22;5412;59.450;18.124;2023-05-15T03:52:56;13.50;99.90
10722;DHT22;5412;59.450;18.124;2023-05-15T03:55:22;13.50;99.90
10722;DHT22;5412;59.450;18.124;2023-05-15T03:57:47;13.70;99.90
10722;DHT22;5412;59.450;18.124;2023-05-15T04:00:13;13.70;99.90
10722;DHT22;5412;59.450;18.124;2023-05-15T04:02:39;13.80;99.90
10722;DHT22;5412;59.450;18.124;2023-05-15T04:05:06;13.90;99.90
10722;DHT22;5412;59.450;18.124;2023-05-15T04:07:33;13.90;99.90
10722;DHT22;5412;59.450;18.124;2023-05-15T04:09:59;14.00;99.90
10722;DHT22;5412;59.450;18.124;2023-05-15T04:12:33;13.90;99.90
10722;DHT22;5412;59.450;18.124;2023-05-15T04:17:38;14.00;99.90
10722;DHT22;5412;59.450;18.124;2023-05-15T04:20:04;13.90;99.90
10722;DHT22;5412;59.450;18.124;2023-05-15T04:22:31;13.80;99.90
10722;DHT22;5412;59.450;18.124;2023-05-15T04:24:57;13.70;99.90
10722;DHT22;5412;59.450;18.124;2023-05-15T04:27:22;13.70;99.90
10722;DHT22;5412;59.450;18.124;2023-05-15T04:29:48;13.70;99.90
10722;DHT22;5412;59.450;18.124;2023-05-15T04:32:14;13.70;99.90
10722;DHT22;5412;59.450;18.124;2023-05-15T04:34:40;13.70;99.90
10722;DHT22;5412;59.450;18.124;2023-05-15T04:37:06;13.80;99.90
10722;DHT22;5412;59.450;18.124;2023-05-15T04:39:31;13.70;99.90
10722;DHT22;5412;59.450;18.124;2023-05-15T04:41:57;13.80;99.90
10722;DHT22;5412;59.450;18.124;2023-05-15T04:44:23;13.80;99.90
10722;DHT22;5412;59.450;18.124;2023-05-15T04:46:48;13.90;99.90
10722;DHT22;5412;59.450;18.124;2023-05-15T04:49:14;14.10;99.90
10722;DHT22;5412;59.450;18.124;2023-05-15T04:51:40;14.10;99.90
10722;DHT22;5412;59.450;18.124;2023-05-15T04:54:06;14.20;99.90
10722;DHT22;5412;59.450;18.124;2023-05-15T04:56:32;14.20;99.90
10722;DHT22;5412;59.450;18.124;2023-05-15T04:58:58;14.30;99.90
10722;DHT22;5412;59.450;18.124;2023-05-15T05:01:24;14.10;99.90
10722;DHT22;5412;59.450;18.124;2023-05-15T05:03:50;14.10;99.90
10722;DHT22;5412;59.450;18.124;2023-05-15T05:06:16;14.20;99.90
10722;DHT22;5412;59.450;18.124;2023-05-15T05:08:41;14.10;99.90
10722;DHT22;5412;59.450;18.124;2023-05-15T05:11:07;14.20;99.90
10722;DHT22;5412;59.450;18.124;2023-05-15T05:13:33;14.10;99.90
10722;DHT22;5412;59.450;18.124;2023-05-15T05:15:59;14.20;99.90
10722;DHT22;5412;59.450;18.124;2023-05-15T05:18:24;14.30;99.90
10722;DHT22;5412;59.450;18.124;2023-05-15T05:21:01;14.30;99.90
10722;DHT22;5412;59.450;18.124;2023-05-15T05:23:27;14.30;99.90
10722;DHT22;5412;59.450;18.124;2023-05-15T05:25:53;14.40;99.90
10722;DHT22;5412;59.450;18.124;2023-05-15T05:28:19;14.50;99.90
10722;DHT22;5412;59.450;18.124;2023-05-15T05:30:45;14.50;99.90
10722;DHT22;5412;59.450;18.124;2023-05-15T05:33:11;14.60;99.90
10722;DHT22;5412;59.450;18.124;2023-05-15T05:35:37;14.60;99.90
10722;DHT22;5412;59.450;18.124;2023-05-15T05:38:03;14.70;99.90
10722;DHT22;5412;59.450;18.124;2023-05-15T05:40:29;14.70;99.90
10722;DHT22;5412;59.450;18.124;2023-05-15T05:42:59;14.80;99.90
10722;DHT22;5412;59.450;18.124;2023-05-15T05:45:25;14.80;99.90
10722;DHT22;5412;59.450;18.124;2023-05-15T05:47:50;14.80;99.90
10722;DHT22;5412;59.450;18.124;2023-05-15T05:50:16;14.90;99.90
10722;DHT22;5412;59.450;18.124;2023-05-15T05:52:42;15.00;99.90
10722;DHT22;5412;59.450;18.124;2023-05-15T05:55:08;15.10;99.90
10722;DHT22;5412;59.450;18.124;2023-05-15T05:57:34;15.20;99.90
10722;DHT22;5412;59.450;18.124;2023-05-15T06:00:00;15.20;99.90
10722;DHT22;5412;59.450;18.124;2023-05-15T06:02:26;15.30;99.90
10722;DHT22;5412;59.450;18.124;2023-05-15T06:04:52;15.30;99.90
10722;DHT22;5412;59.450;18.124;2023-05-15T06:07:17;15.30;99.90
10722;DHT22;5412;59.450;18.124;2023-05-15T06:09:43;15.40;99.90
10722;DHT22;5412;59.450;18.124;2023-05-15T06:12:10;15.50;99.90
10722;DHT22;5412;59.450;18.124;2023-05-15T06:14:36;15.60;99.90
10722;DHT22;5412;59.450;18.124;2023-05-15T06:17:02;15.70;99.90
10722;DHT22;5412;59.450;18.124;2023-05-15T06:19:28;15.70;99.90
10722;DHT22;5412;59.450;18.124;2023-05-15T06:21:57;15.80;99.90
10722;DHT22;5412;59.450;18.124;2023-05-15T06:24:23;15.90;99.90
10722;DHT22;5412;59.450;18.124;2023-05-15T06:26:48;16.00;99.90
10722;DHT22;5412;59.450;18.124;2023-05-15T06:29:14;16.10;99.90
10722;DHT22;5412;59.450;18.124;2023-05-15T06:31:40;16.30;99.90
10722;DHT22;5412;59.450;18.124;2023-05-15T06:34:05;16.40;99.90
10722;DHT22;5412;59.450;18.124;2023-05-15T06:36:31;16.50;99.90
10722;DHT22;5412;59.450;18.124;2023-05-15T06:38:57;16.80;99.90
10722;DHT22;5412;59.450;18.124;2023-05-15T06:41:23;17.00;99.90
10722;DHT22;5412;59.450;18.124;2023-05-15T06:43:48;17.20;99.90
10722;DHT22;5412;59.450;18.124;2023-05-15T06:46:14;17.50;99.90
10722;DHT22;5412;59.450;18.124;2023-05-15T06:48:41;17.60;99.90
10722;DHT22;5412;59.450;18.124;2023-05-15T06:51:07;17.50;99.90
10722;DHT22;5412;59.450;18.124;2023-05-15T06:53:32;17.50;99.90
10722;DHT22;5412;59.450;18.124;2023-05-15T06:55:58;17.70;99.90
10722;DHT22;5412;59.450;18.124;2023-05-15T06:58:24;17.90;99.90
10722;DHT22;5412;59.450;18.124;2023-05-15T07:00:50;17.70;99.90
10722;DHT22;5412;59.450;18.124;2023-05-15T07:03:16;17.80;99.90
10722;DHT22;5412;59.450;18.124;2023-05-15T07:05:42;17.70;99.90
10722;DHT22;5412;59.450;18.124;2023-05-15T07:08:07;17.70;99.90
10722;DHT22;5412;59.450;18.124;2023-05-15T07:10:33;17.70;99.90
10722;DHT22;5412;59.450;18.124;2023-05-15T07:12:59;17.70;99.90
10722;DHT22;5412;59.450;18.124;2023-05-15T07:15:25;17.80;99.90
10722;DHT22;5412;59.450;18.124;2023-05-15T07:17:50;17.80;99.90
10722;DHT22;5412;59.450;18.124;2023-05-15T07:20:16;18.00;99.90
10722;DHT22;5412;59.450;18.124;2023-05-15T07:22:42;18.20;99.90
10722;DHT22;5412;59.450;18.124;2023-05-15T07:25:08;18.20;99.90
10722;DHT22;5412;59.450;18.124;2023-05-15T07:27:34;18.20;99.90
10722;DHT22;5412;59.450;18.124;2023-05-15T07:30:01;18.00;99.90
10722;DHT22;5412;59.450;18.124;2023-05-15T07:32:29;18.10;99.90
10722;DHT22;5412;59.450;18.124;2023-05-15T07:34:55;18.00;99.90
10722;DHT22;5412;59.450;18.124;2023-05-15T07:37:21;18.00;99.90
10722;DHT22;5412;59.450;18.124;2023-05-15T07:39:48;18.00;99.90
10722;DHT22;5412;59.450;18.124;2023-05-15T07:42:14;18.00;99.90
10722;DHT22;5412;59.450;18.124;2023-05-15T07:44:40;18.10;99.90
10722;DHT22;5412;59.450;18.124;2023-05-15T07:47:05;18.20;99.90
10722;DHT22;5412;59.450;18.124;2023-05-15T07:49:31;18.30;99.90
10722;DHT22;5412;59.450;18.124;2023-05-15T07:51:57;18.70;99.90
10722;DHT22;5412;59.450;18.124;2023-05-15T07:54:23;19.00;99.90
10722;DHT22;5412;59.450;18.124;2023-05-15T07:56:48;19.20;99.90
10722;DHT22;5412;59.450;18.124;2023-05-15T07:59:14;19.30;99.90
10722;DHT22;5412;59.450;18.124;2023-05-15T08:01:40;19.10;99.90
10722;DHT22;5412;59.450;18.124;2023-05-15T08:04:07;19.00;99.90
10722;DHT22;5412;59.450;18.124;2023-05-15T08:06:34;18.90;99.90
10722;DHT22;5412;59.450;18.124;2023-05-15T08:09:01;18.90;99.90
10722;DHT22;5412;59.450;18.124;2023-05-15T08:11:27;18.90;99.90
10722;DHT22;5412;59.450;18.124;2023-05-15T08:13:53;19.00;99.90
10722;DHT22;5412;59.450;18.124;2023-05-15T08:16:18;19.30;99.90
10722;DHT22;5412;59.450;18.124;2023-05-15T08:18:44;19.60;99.90
10722;DHT22;5412;59.450;18.124;2023-05-15T08:21:10;19.90;99.90
10722;DHT22;5412;59.450;18.124;2023-05-15T08:23:36;20.00;99.90
10722;DHT22;5412;59.450;18.124;2023-05-15T08:26:01;20.20;99.90
10722;DHT22;5412;59.450;18.124;2023-05-15T08:28:27;20.40;99.90
10722;DHT22;5412;59.450;18.124;2023-05-15T08:30:53;20.50;99.50
10722;DHT22;5412;59.450;18.124;2023-05-15T08:33:18;20.60;98.60
10722;DHT22;5412;59.450;18.124;2023-05-15T08:35:44;20.70;97.70
10722;DHT22;5412;59.450;18.124;2023-05-15T08:38:10;20.70;96.20
10722;DHT22;5412;59.450;18.124;2023-05-15T08:40:36;20.90;96.30
10722;DHT22;5412;59.450;18.124;2023-05-15T08:43:21;21.00;94.50
10722;DHT22;5412;59.450;18.124;2023-05-15T08:45:48;20.90;92.80
10722;DHT22;5412;59.450;18.124;2023-05-15T08:48:16;20.90;92.90
10722;DHT22;5412;59.450;18.124;2023-05-15T08:50:43;21.00;91.50
10722;DHT22;5412;59.450;18.124;2023-05-15T08:53:13;21.10;92.10
10722;DHT22;5412;59.450;18.124;2023-05-15T08:55:39;21.10;91.10
10722;DHT22;5412;59.450;18.124;2023-05-15T08:58:06;21.10;90.90
10722;DHT22;5412;59.450;18.124;2023-05-15T09:00:32;21.20;91.60
10722;DHT22;5412;59.450;18.124;2023-05-15T09:02:59;21.30;91.80
10722;DHT22;5412;59.450;18.124;2023-05-15T09:05:28;21.50;92.40
10722;DHT22;5412;59.450;18.124;2023-05-15T09:07:54;21.50;87.50
10722;DHT22;5412;59.450;18.124;2023-05-15T09:10:21;21.40;84.30
10722;DHT22;5412;59.450;18.124;2023-05-15T09:12:49;21.40;81.40
10722;DHT22;5412;59.450;18.124;2023-05-15T09:15:16;21.40;78.90
10722;DHT22;5412;59.450;18.124;2023-05-15T09:17:43;21.50;78.70
10722;DHT22;5412;59.450;18.124;2023-05-15T09:20:31;21.40;78.50
10722;DHT22;5412;59.450;18.124;2023-05-15T09:22:59;21.50;78.80
10722;DHT22;5412;59.450;18.124;2023-05-15T09:25:38;21.60;78.30
10722;DHT22;5412;59.450;18.124;2023-05-15T09:28:08;21.60;77.20
10722;DHT22;5412;59.450;18.124;2023-05-15T09:30:38;21.60;74.10
10722;DHT22;5412;59.450;18.124;2023-05-15T09:33:04;21.50;72.40
10722;DHT22;5412;59.450;18.124;2023-05-15T09:35:38;21.40;71.00
10722;DHT22;5412;59.450;18.124;2023-05-15T09:38:10;21.40;70.70
10722;DHT22;5412;59.450;18.124;2023-05-15T09:40:37;21.40;71.90
10722;DHT22;5412;59.450;18.124;2023-05-15T09:43:03;21.50;73.60
10722;DHT22;5412;59.450;18.124;2023-05-15T09:45:29;21.60;75.20
10722;DHT22;5412;59.450;18.124;2023-05-15T09:47:58;21.70;74.10
10722;DHT22;5412;59.450;18.124;2023-05-15T09:50:34;21.80;74.00
10722;DHT22;5412;59.450;18.124;2023-05-15T09:53:01;21.80;74.60
10722;DHT22;5412;59.450;18.124;2023-05-15T09:55:26;21.90;75.90
10722;DHT22;5412;59.450;18.124;2023-05-15T09:58:09;22.00;75.50
10722;DHT22;5412;59.450;18.124;2023-05-15T10:00:36;22.10;75.60
10722;DHT22;5412;59.450;18.124;2023-05-15T10:03:03;22.20;75.90
10722;DHT22;5412;59.450;18.124;2023-05-15T10:05:30;22.30;74.10
10722;DHT22;5412;59.450;18.124;2023-05-15T10:07:57;22.20;74.30
10722;DHT22;5412;59.450;18.124;2023-05-15T10:10:24;22.30;73.70
10722;DHT22;5412;59.450;18.124;2023-05-15T10:12:51;22.20;71.60
10722;DHT22;5412;59.450;18.124;2023-05-15T10:15:18;22.10;72.00
10722;DHT22;5412;59.450;18.124;2023-05-15T10:17:46;22.10;73.30
10722;DHT22;5412;59.450;18.124;2023-05-15T10:20:13;22.20;73.80
10722;DHT22;5412;59.450;18.124;2023-05-15T10:22:45;22.30;73.30
10722;DHT22;5412;59.450;18.124;2023-05-15T10:27:49;22.30;73.80
10722;DHT22;5412;59.450;18.124;2023-05-15T10:30:15;22.30;75.00
10722;DHT22;5412;59.450;18.124;2023-05-15T10:32:43;22.30;75.40
10722;DHT22;5412;59.450;18.124;2023-05-15T10:35:10;22.30;74.90
10722;DHT22;5412;59.450;18.124;2023-05-15T10:37:38;22.10;75.40
10722;DHT22;5412;59.450;18.124;2023-05-15T10:40:07;21.90;76.50
10722;DHT22;5412;59.450;18.124;2023-05-15T10:42:35;21.80;76.30
10722;DHT22;5412;59.450;18.124;2023-05-15T10:45:01;21.60;75.60
10722;DHT22;5412;59.450;18.124;2023-05-15T10:47:30;21.60;75.80
10722;DHT22;5412;59.450;18.124;2023-05-15T10:49:58;21.50;74.90
10722;DHT22;5412;59.450;18.124;2023-05-15T10:52:24;21.50;74.00
10722;DHT22;5412;59.450;18.124;2023-05-15T10:54:52;21.50;73.70
10722;DHT22;5412;59.450;18.124;2023-05-15T10:57:20;21.50;73.30
10722;DHT22;5412;59.450;18.124;2023-05-15T10:59:46;21.40;71.90
10722;DHT22;5412;59.450;18.124;2023-05-15T11:02:23;21.40;71.90
10722;DHT22;5412;59.450;18.124;2023-05-15T11:04:57;21.40;73.00
10722;DHT22;5412;59.450;18.124;2023-05-15T11:07:23;21.40;72.80
10722;DHT22;5412;59.450;18.124;2023-05-15T11:09:50;21.30;73.90
10722;DHT22;5412;59.450;18.124;2023-05-15T11:12:16;21.30;74.60
10722;DHT22;5412;59.450;18.124;2023-05-15T11:17:25;21.20;76.20
10722;DHT22;5412;59.450;18.124;2023-05-15T11:25:09;21.10;76.00
10722;DHT22;5412;59.450;18.124;2023-05-15T11:27:40;21.20;77.50
10722;DHT22;5412;59.450;18.124;2023-05-15T11:30:17;21.10;75.30
10722;DHT22;5412;59.450;18.124;2023-05-15T11:32:59;21.00;74.50
10722;DHT22;5412;59.450;18.124;2023-05-15T11:35:45;21.00;73.50
10722;DHT22;5412;59.450;18.124;2023-05-15T11:38:16;20.90;75.60
10722;DHT22;5412;59.450;18.124;2023-05-15T11:40:46;21.00;74.90
10722;DHT22;5412;59.450;18.124;2023-05-15T11:43:19;21.00;73.80
10722;DHT22;5412;59.450;18.124;2023-05-15T11:45:49;21.10;73.00
10722;DHT22;5412;59.450;18.124;2023-05-15T11:48:18;21.10;71.50
10722;DHT22;5412;59.450;18.124;2023-05-15T11:50:45;21.20;71.90
10722;DHT22;5412;59.450;18.124;2023-05-15T11:53:11;21.20;71.20
10722;DHT22;5412;59.450;18.124;2023-05-15T11:55:41;21.20;70.80
10722;DHT22;5412;59.450;18.124;2023-05-15T11:58:16;21.20;71.10
10722;DHT22;5412;59.450;18.124;2023-05-15T12:00:48;21.00;71.30
10722;DHT22;5412;59.450;18.124;2023-05-15T12:03:33;21.00;70.90
10722;DHT22;5412;59.450;18.124;2023-05-15T12:06:02;21.00;71.40
10722;DHT22;5412;59.450;18.124;2023-05-15T12:08:35;21.00;70.90
10722;DHT22;5412;59.450;18.124;2023-05-15T12:11:04;21.00;71.20
10722;DHT22;5412;59.450;18.124;2023-05-15T12:13:31;21.00;70.20
10722;DHT22;5412;59.450;18.124;2023-05-15T12:15:58;21.00;69.60
10722;DHT22;5412;59.450;18.124;2023-05-15T12:18:24;21.00;69.60
10722;DHT22;5412;59.450;18.124;2023-05-15T12:20:53;21.10;69.00
10722;DHT22;5412;59.450;18.124;2023-05-15T12:23:21;21.00;69.30
10722;DHT22;5412;59.450;18.124;2023-05-15T12:25:49;21.00;69.60
10722;DHT22;5412;59.450;18.124;2023-05-15T12:28:16;21.20;71.30
10722;DHT22;5412;59.450;18.124;2023-05-15T12:30:42;21.30;71.00
10722;DHT22;5412;59.450;18.124;2023-05-15T12:33:09;21.40;72.00
10722;DHT22;5412;59.450;18.124;2023-05-15T12:35:36;21.50;72.00
10722;DHT22;5412;59.450;18.124;2023-05-15T12:38:08;21.60;72.10
10722;DHT22;5412;59.450;18.124;2023-05-15T12:43:34;22.00;73.20
10722;DHT22;5412;59.450;18.124;2023-05-15T12:46:00;22.00;68.20
10722;DHT22;5412;59.450;18.124;2023-05-15T12:48:32;22.20;68.00
10722;DHT22;5412;59.450;18.124;2023-05-15T12:51:06;22.30;68.70
10722;DHT22;5412;59.450;18.124;2023-05-15T12:53:36;22.30;67.20
10722;DHT22;5412;59.450;18.124;2023-05-15T12:56:04;22.40;68.60
10722;DHT22;5412;59.450;18.124;2023-05-15T12:58:30;22.80;68.70
10722;DHT22;5412;59.450;18.124;2023-05-15T13:00:55;23.30;67.40
10722;DHT22;5412;59.450;18.124;2023-05-15T13:03:23;23.50;65.00
10722;DHT22;5412;59.450;18.124;2023-05-15T13:05:50;24.10;64.30
10722;DHT22;5412;59.450;18.124;2023-05-15T13:08:19;23.90;63.70
10722;DHT22;5412;59.450;18.124;2023-05-15T13:10:46;24.10;63.30
10722;DHT22;5412;59.450;18.124;2023-05-15T13:13:12;24.50;62.40
10722;DHT22;5412;59.450;18.124;2023-05-15T13:15:44;24.50;62.10
10722;DHT22;5412;59.450;18.124;2023-05-15T13:18:16;24.70;61.90
10722;DHT22;5412;59.450;18.124;2023-05-15T13:20:49;24.90;59.80
10722;DHT22;5412;59.450;18.124;2023-05-15T13:23:20;24.40;58.40
10722;DHT22;5412;59.450;18.124;2023-05-15T13:25:46;24.70;59.00
10722;DHT22;5412;59.450;18.124;2023-05-15T13:28:12;24.60;58.70
10722;DHT22;5412;59.450;18.124;2023-05-15T13:30:39;24.70;58.70
10722;DHT22;5412;59.450;18.124;2023-05-15T13:33:11;24.60;58.40
10722;DHT22;5412;59.450;18.124;2023-05-15T13:35:37;24.80;58.50
10722;DHT22;5412;59.450;18.124;2023-05-15T13:38:06;25.00;58.10
10722;DHT22;5412;59.450;18.124;2023-05-15T13:40:32;25.20;57.70
10722;DHT22;5412;59.450;18.124;2023-05-15T13:43:00;25.40;57.40
10722;DHT22;5412;59.450;18.124;2023-05-15T13:45:26;25.40;57.20
10722;DHT22;5412;59.450;18.124;2023-05-15T13:47:51;25.40;57.40
10722;DHT22;5412;59.450;18.124;2023-05-15T13:50:17;25.40;57.00
10722;DHT22;5412;59.450;18.124;2023-05-15T13:52:44;25.60;56.30
10722;DHT22;5412;59.450;18.124;2023-05-15T13:55:10;25.50;55.90
10722;DHT22;5412;59.450;18.124;2023-05-15T13:57:40;25.60;55.60
10722;DHT22;5412;59.450;18.124;2023-05-15T14:00:07;25.00;56.40
10722;DHT22;5412;59.450;18.124;2023-05-15T14:02:36;24.80;56.50
10722;DHT22;5412;59.450;18.124;2023-05-15T14:05:02;24.60;57.00
10722;DHT22;5412;59.450;18.124;2023-05-15T14:07:29;24.70;57.40
10722;DHT22;5412;59.450;18.124;2023-05-15T14:09:55;24.80;56.80
10722;DHT22;5412;59.450;18.124;2023-05-15T14:12:20;24.90;55.70
10722;DHT22;5412;59.450;18.124;2023-05-15T14:14:46;25.00;55.20
10722;DHT22;5412;59.450;18.124;2023-05-15T14:17:13;24.80;54.20
10722;DHT22;5412;59.450;18.124;2023-05-15T14:19:39;24.90;53.70
10722;DHT22;5412;59.450;18.124;2023-05-15T14:22:05;25.40;53.60
10722;DHT22;5412;59.450;18.124;2023-05-15T14:24:31;25.50;53.00
10722;DHT22;5412;59.450;18.124;2023-05-15T14:26:57;26.00;52.30
10722;DHT22;5412;59.450;18.124;2023-05-15T14:29:23;26.30;52.30
10722;DHT22;5412;59.450;18.124;2023-05-15T14:31:49;26.20;51.30
10722;DHT22;5412;59.450;18.124;2023-05-15T14:34:15;26.20;50.70
10722;DHT22;5412;59.450;18.124;2023-05-15T14:36:41;26.50;50.70
10722;DHT22;5412;59.450;18.124;2023-05-15T14:39:07;26.70;51.00
10722;DHT22;5412;59.450;18.124;2023-05-15T14:41:32;25.90;51.40
10722;DHT22;5412;59.450;18.124;2023-05-15T14:43:58;25.40;52.30
10722;DHT22;5412;59.450;18.124;2023-05-15T14:46:24;24.80;51.90
10722;DHT22;5412;59.450;18.124;2023-05-15T14:48:52;25.50;53.10
10722;DHT22;5412;59.450;18.124;2023-05-15T14:51:18;26.20;52.10
10722;DHT22;5412;59.450;18.124;2023-05-15T14:53:44;26.80;51.80
10722;DHT22;5412;59.450;18.124;2023-05-15T14:56:09;27.50;51.40
10722;DHT22;5412;59.450;18.124;2023-05-15T14:58:35;27.90;51.00
10722;DHT22;5412;59.450;18.124;2023-05-15T15:01:02;28.10;50.50
10722;DHT22;5412;59.450;18.124;2023-05-15T15:03:27;28.00;50.40
10722;DHT22;5412;59.450;18.124;2023-05-15T15:05:53;27.70;51.20
10722;DHT22;5412;59.450;18.124;2023-05-15T15:08:19;27.20;51.10
10722;DHT22;5412;59.450;18.124;2023-05-15T15:10:45;27.30;51.30
10722;DHT22;5412;59.450;18.124;2023-05-15T15:13:10;27.10;52.10
10722;DHT22;5412;59.450;18.124;2023-05-15T15:15:38;26.20;52.90
10722;DHT22;5412;59.450;18.124;2023-05-15T15:18:05;25.50;53.20
10722;DHT22;5412;59.450;18.124;2023-05-15T15:20:31;24.90;54.20
10722;DHT22;5412;59.450;18.124;2023-05-15T15:22:57;24.60;55.50
10722;DHT22;5412;59.450;18.124;2023-05-15T15:25:23;24.10;57.20
10722;DHT22;5412;59.450;18.124;2023-05-15T15:27:49;23.80;57.30
10722;DHT22;5412;59.450;18.124;2023-05-15T15:30:15;23.40;59.10
10722;DHT22;5412;59.450;18.124;2023-05-15T15:32:44;23.10;58.80
10722;DHT22;5412;59.450;18.124;2023-05-15T15:35:10;22.80;59.40
10722;DHT22;5412;59.450;18.124;2023-05-15T15:37:37;22.70;60.40
10722;DHT22;5412;59.450;18.124;2023-05-15T15:40:05;22.50;61.10
10722;DHT22;5412;59.450;18.124;2023-05-15T15:42:31;22.30;61.30
10722;DHT22;5412;59.450;18.124;2023-05-15T15:44:58;22.40;62.00
10722;DHT22;5412;59.450;18.124;2023-05-15T15:47:24;22.50;61.70
10722;DHT22;5412;59.450;18.124;2023-05-15T15:49:50;22.40;62.40
10722;DHT22;5412;59.450;18.124;2023-05-15T15:52:17;22.30;62.60
10722;DHT22;5412;59.450;18.124;2023-05-15T15:54:43;22.20;62.50
10722;DHT22;5412;59.450;18.124;2023-05-15T15:57:15;22.10;62.80
10722;DHT22;5412;59.450;18.124;2023-05-15T15:59:41;21.90;63.60
10722;DHT22;5412;59.450;18.124;2023-05-15T16:02:07;22.10;64.10
10722;DHT22;5412;59.450;18.124;2023-05-15T16:04:34;22.60;63.40